Time;durP1;ratioP1;P1;durP2;ratioP2;P2;SDS_P1;SDS_P2;PMS_P1;PMS_P2;Temp;Humidity;BMP_temperature;BMP_pressure;BME280_temperature;BME280_humidity;BME280_pressure;Samples;Min_cycle;Max_cycle;Signal;HPM_P1;HPM_P2
2024/03/20 00:00:46;;;;;;;38.20;21.88;;;11.10;99.90;;;;;;5049871;28;20036;-80
2024/03/20 00:03:12;;;;;;;40.25;22.48;;;11.10;99.90;;;;;;5053678;28;20045;-80
2024/03/20 00:05:37;;;;;;;41.40;22.13;;;11.10;99.90;;;;;;5053424;28;20040;-80
2024/03/20 00:08:04;;;;;;;41.65;22.00;;;11.10;99.90;;;;;;5053059;28;20110;-80
2024/03/20 00:10:29;;;;;;;44.75;22.75;;;11.10;99.90;;;;;;5051926;28;20028;-81
2024/03/20 00:12:55;;;;;;;43.75;23.25;;;11.20;99.90;;;;;;5052073;28;20033;-79
2024/03/20 00:15:21;;;;;;;50.13;24.58;;;11.10;99.90;;;;;;5047924;28;20029;-79
2024/03/20 00:17:48;;;;;;;56.55;26.83;;;11.10;99.90;;;;;;5052645;28;20201;-79
2024/03/20 00:20:14;;;;;;;51.00;26.92;;;11.20;99.90;;;;;;5056418;28;20025;-79
2024/03/20 00:22:40;;;;;;;46.83;25.75;;;11.20;99.90;;;;;;5055028;28;20048;-79
2024/03/20 00:25:06;;;;;;;50.63;24.40;;;11.20;99.90;;;;;;5053799;28;20048;-79
2024/03/20 00:27:31;;;;;;;46.58;25.20;;;11.20;99.90;;;;;;5054640;28;20032;-79
2024/03/20 00:29:57;;;;;;;47.58;25.88;;;11.20;99.90;;;;;;5055118;28;20038;-79
2024/03/20 00:32:23;;;;;;;40.72;23.35;;;11.20;99.90;;;;;;5054752;28;20044;-79
2024/03/20 00:34:48;;;;;;;47.83;24.27;;;11.20;99.90;;;;;;5054228;28;20957;-79
2024/03/20 00:37:14;;;;;;;46.08;22.77;;;11.10;99.90;;;;;;5054344;28;20070;-79
2024/03/20 00:39:40;;;;;;;44.83;23.35;;;11.00;99.90;;;;;;5054248;28;20064;-79
2024/03/20 00:42:06;;;;;;;39.03;20.85;;;11.00;99.90;;;;;;5054839;28;20491;-78
2024/03/20 00:44:36;;;;;;;44.47;21.60;;;11.00;99.90;;;;;;5053768;28;20048;-78
2024/03/20 00:47:03;;;;;;;44.75;22.75;;;11.00;99.90;;;;;;5053568;28;20029;-80
2024/03/20 00:49:28;;;;;;;40.88;21.88;;;11.00;99.90;;;;;;5055470;28;20047;-80
2024/03/20 00:51:54;;;;;;;45.60;22.77;;;11.00;99.90;;;;;;5054185;28;20036;-80
2024/03/20 00:54:19;;;;;;;45.35;23.50;;;11.00;99.90;;;;;;5055014;28;25640;-80
2024/03/20 00:56:45;;;;;;;47.17;23.42;;;11.00;99.90;;;;;;5052421;28;20036;-80
2024/03/20 00:59:14;;;;;;;44.45;22.73;;;11.00;99.90;;;;;;5055153;28;20064;-80
2024/03/20 01:01:40;;;;;;;57.28;25.92;;;11.00;99.90;;;;;;5053500;28;20048;-80
2024/03/20 01:04:06;;;;;;;41.47;24.00;;;11.00;99.90;;;;;;5052922;28;20460;-80
2024/03/20 01:06:31;;;;;;;43.58;22.48;;;11.00;99.90;;;;;;5054262;28;20519;-80
2024/03/20 01:08:57;;;;;;;43.08;22.65;;;11.00;99.90;;;;;;5053850;28;20740;-80
2024/03/20 01:11:22;;;;;;;40.67;21.05;;;11.00;99.90;;;;;;5053838;28;20505;-81
2024/03/20 01:13:48;;;;;;;44.25;23.27;;;10.90;99.90;;;;;;5054989;28;20036;-80
2024/03/20 01:16:13;;;;;;;44.65;24.13;;;11.00;99.90;;;;;;5052140;28;20033;-80
2024/03/20 01:18:39;;;;;;;45.78;25.48;;;10.90;99.90;;;;;;5054516;28;20062;-80
2024/03/20 01:21:05;;;;;;;45.33;24.90;;;10.90;99.90;;;;;;5054420;28;20032;-80
2024/03/20 01:23:31;;;;;;;43.25;24.40;;;10.90;99.90;;;;;;5053294;28;20039;-80
2024/03/20 01:25:57;;;;;;;49.75;24.77;;;11.00;99.90;;;;;;5053467;28;20029;-80
2024/03/20 01:28:27;;;;;;;53.25;25.48;;;10.90;99.90;;;;;;5052526;28;20041;-80
2024/03/20 01:30:53;;;;;;;51.40;26.88;;;11.00;99.90;;;;;;5053253;28;20682;-80
2024/03/20 01:33:19;;;;;;;53.03;26.85;;;11.00;99.90;;;;;;5054499;28;20032;-80
2024/03/20 01:35:44;;;;;;;49.67;26.85;;;11.00;99.90;;;;;;5054069;28;20040;-80
2024/03/20 01:38:10;;;;;;;47.35;24.92;;;11.00;99.90;;;;;;5053033;28;20036;-80
2024/03/20 01:40:36;;;;;;;50.13;25.17;;;11.00;99.90;;;;;;5052787;28;20035;-81
2024/03/20 01:43:01;;;;;;;51.13;26.50;;;11.00;99.90;;;;;;5054349;28;20055;-80
2024/03/20 01:45:27;;;;;;;47.45;23.73;;;11.00;99.90;;;;;;5052216;28;20098;-80
2024/03/20 01:47:53;;;;;;;46.05;23.58;;;10.90;99.90;;;;;;5054766;28;20486;-80
2024/03/20 01:50:18;;;;;;;46.35;24.88;;;10.90;99.90;;;;;;5053718;28;20067;-80
2024/03/20 01:52:52;;;;;;;48.80;25.23;;;11.00;99.90;;;;;;5053275;28;20068;-80
2024/03/20 01:55:20;;;;;;;53.13;27.30;;;11.10;99.90;;;;;;5053569;28;20044;-80
2024/03/20 01:57:46;;;;;;;46.80;24.90;;;11.20;99.90;;;;;;5054121;28;20039;-80
2024/03/20 02:00:21;;;;;;;51.17;26.25;;;11.20;99.90;;;;;;5053413;28;20037;-80
2024/03/20 02:02:47;;;;;;;47.00;25.40;;;11.20;99.90;;;;;;5052825;28;20147;-80
2024/03/20 02:05:13;;;;;;;49.22;26.88;;;11.20;99.90;;;;;;5052989;28;20075;-80
2024/03/20 02:07:39;;;;;;;40.67;23.05;;;11.20;99.90;;;;;;5052210;28;20419;-80
2024/03/20 02:10:05;;;;;;;49.88;26.20;;;11.20;99.90;;;;;;5053055;28;20052;-80
2024/03/20 02:12:31;;;;;;;53.45;24.48;;;11.10;99.90;;;;;;5054265;28;20063;-80
2024/03/20 02:14:57;;;;;;;45.80;23.05;;;11.00;99.90;;;;;;5052926;28;20025;-80
2024/03/20 02:17:23;;;;;;;42.90;24.15;;;11.00;99.90;;;;;;5051134;28;20036;-80
2024/03/20 02:19:49;;;;;;;45.95;22.90;;;11.10;99.90;;;;;;5054267;28;20391;-80
2024/03/20 02:22:15;;;;;;;43.15;22.08;;;11.10;99.90;;;;;;5052703;28;20032;-80
2024/03/20 02:24:40;;;;;;;41.65;20.83;;;11.10;99.90;;;;;;5053274;28;20123;-80
2024/03/20 02:27:07;;;;;;;43.25;22.38;;;11.00;99.90;;;;;;5054852;28;20787;-80
2024/03/20 02:29:32;;;;;;;44.20;20.65;;;11.00;99.90;;;;;;5057631;28;20593;-80
2024/03/20 02:31:58;;;;;;;41.78;22.60;;;10.90;99.90;;;;;;5056860;28;20033;-78
2024/03/20 02:34:24;;;;;;;42.75;22.70;;;10.90;99.90;;;;;;5057848;28;20530;-78
2024/03/20 02:36:49;;;;;;;41.38;22.50;;;10.90;99.90;;;;;;5056203;28;20526;-78
2024/03/20 02:39:15;;;;;;;40.50;20.60;;;10.90;99.90;;;;;;5056452;28;20041;-78
2024/03/20 02:41:41;;;;;;;41.80;22.45;;;10.90;99.90;;;;;;5055989;28;20093;-78
2024/03/20 02:44:06;;;;;;;42.72;22.65;;;10.90;99.90;;;;;;5056644;28;20048;-78
2024/03/20 02:46:32;;;;;;;40.80;23.45;;;10.90;99.90;;;;;;5055658;28;20021;-78
2024/03/20 02:48:57;;;;;;;45.85;23.85;;;10.80;99.90;;;;;;5057544;28;20036;-78
2024/03/20 02:51:23;;;;;;;44.95;23.95;;;10.80;99.90;;;;;;5055923;28;20687;-78
2024/03/20 02:53:51;;;;;;;43.60;23.33;;;10.70;99.90;;;;;;5056368;28;20032;-78
2024/03/20 02:56:17;;;;;;;46.35;24.08;;;10.80;99.90;;;;;;5056878;28;20472;-78
2024/03/20 02:58:43;;;;;;;45.08;23.00;;;10.80;99.90;;;;;;5055593;28;20036;-78
2024/03/20 03:01:08;;;;;;;52.50;25.25;;;10.80;99.90;;;;;;5057391;28;20059;-78
2024/03/20 03:03:34;;;;;;;51.47;26.67;;;10.90;99.90;;;;;;5055801;28;20139;-78
2024/03/20 03:06:00;;;;;;;46.72;23.90;;;10.80;99.90;;;;;;5054115;28;20056;-78
2024/03/20 03:08:25;;;;;;;40.80;24.05;;;10.80;99.90;;;;;;5057944;28;20079;-78
2024/03/20 03:10:51;;;;;;;50.30;24.20;;;10.80;99.90;;;;;;5055740;28;20052;-78
2024/03/20 03:13:17;;;;;;;42.95;23.30;;;10.80;99.90;;;;;;5055932;28;20048;-78
2024/03/20 03:15:42;;;;;;;46.65;24.25;;;10.80;99.90;;;;;;5057373;28;20230;-78
2024/03/20 03:18:08;;;;;;;48.50;24.90;;;10.80;99.90;;;;;;5055422;28;20044;-78
2024/03/20 03:20:33;;;;;;;54.17;26.40;;;10.90;99.90;;;;;;5056759;28;20788;-78
2024/03/20 03:22:59;;;;;;;44.45;23.08;;;10.90;99.90;;;;;;5055011;28;20040;-78
2024/03/20 03:25:24;;;;;;;43.42;22.48;;;11.00;99.90;;;;;;5055916;28;20490;-78
2024/03/20 03:27:50;;;;;;;42.17;21.38;;;10.90;99.90;;;;;;5056779;28;20036;-78
2024/03/20 03:30:16;;;;;;;44.60;21.95;;;11.00;99.90;;;;;;5055975;28;20035;-78
2024/03/20 03:32:41;;;;;;;39.78;19.50;;;10.90;99.90;;;;;;5055240;28;20028;-80
2024/03/20 03:35:08;;;;;;;49.90;23.50;;;10.90;99.90;;;;;;5057255;28;20041;-80
2024/03/20 03:37:34;;;;;;;42.65;22.20;;;10.90;99.90;;;;;;5054830;28;20127;-80
2024/03/20 03:40:00;;;;;;;43.05;22.90;;;10.80;99.90;;;;;;5054441;28;20724;-80
2024/03/20 03:42:29;;;;;;;46.58;23.85;;;10.80;99.90;;;;;;5056953;28;20044;-80
2024/03/20 03:44:54;;;;;;;47.03;24.70;;;10.80;99.90;;;;;;5053899;28;20048;-80
2024/03/20 03:47:21;;;;;;;45.97;24.55;;;10.80;99.90;;;;;;5054469;28;20029;-80
2024/03/20 03:49:47;;;;;;;43.53;22.25;;;10.80;99.90;;;;;;5055722;28;20714;-80
2024/03/20 03:52:13;;;;;;;48.88;25.17;;;10.90;99.90;;;;;;5056821;28;20226;-80
2024/03/20 03:54:39;;;;;;;51.40;26.80;;;10.90;99.90;;;;;;5055679;28;20120;-80
2024/03/20 03:57:05;;;;;;;47.13;24.25;;;10.80;99.90;;;;;;5053918;28;20040;-80
2024/03/20 03:59:30;;;;;;;43.42;21.73;;;10.80;99.90;;;;;;5057019;28;20033;-80
2024/03/20 04:01:56;;;;;;;46.28;24.50;;;10.80;99.90;;;;;;5054926;28;20508;-80
2024/03/20 04:04:22;;;;;;;42.65;22.73;;;10.70;99.90;;;;;;5049031;28;20044;-80
2024/03/20 04:06:48;;;;;;;42.80;22.85;;;10.80;99.90;;;;;;5051056;28;20638;-80
2024/03/20 04:09:14;;;;;;;41.20;21.75;;;10.80;99.90;;;;;;5049777;28;20036;-81
2024/03/20 04:11:39;;;;;;;37.90;20.60;;;10.80;99.90;;;;;;5049643;28;20040;-82
2024/03/20 04:14:07;;;;;;;45.00;21.95;;;10.80;99.90;;;;;;5052139;28;20036;-80
2024/03/20 04:16:34;;;;;;;43.72;23.25;;;10.70;99.90;;;;;;5050081;28;20032;-80
2024/03/20 04:19:00;;;;;;;44.63;24.77;;;10.70;99.90;;;;;;5046676;28;20029;-79
2024/03/20 04:21:25;;;;;;;45.22;24.13;;;10.70;99.90;;;;;;5049598;28;20047;-79
2024/03/20 04:23:51;;;;;;;45.75;24.73;;;10.70;99.90;;;;;;5048216;28;20120;-78
2024/03/20 04:26:17;;;;;;;47.75;23.63;;;10.70;99.90;;;;;;5050300;28;20063;-79
2024/03/20 04:28:42;;;;;;;47.10;25.80;;;10.70;99.90;;;;;;5052645;28;20050;-78
2024/03/20 04:31:13;;;;;;;50.25;25.27;;;10.70;99.90;;;;;;5049549;28;20037;-78
2024/03/20 04:33:39;;;;;;;50.03;27.35;;;10.60;99.90;;;;;;5049813;28;20124;-78
2024/03/20 04:36:05;;;;;;;48.00;25.30;;;10.60;99.90;;;;;;5052442;28;21205;-78
2024/03/20 04:38:31;;;;;;;50.75;25.90;;;10.70;99.90;;;;;;5050598;28;20047;-78
2024/03/20 04:40:56;;;;;;;46.58;23.80;;;10.70;99.90;;;;;;5050792;28;20059;-79
2024/03/20 04:43:22;;;;;;;47.58;24.98;;;10.70;99.90;;;;;;5048928;28;20665;-79
2024/03/20 04:45:47;;;;;;;48.25;25.42;;;10.70;99.90;;;;;;5047266;28;20045;-78
2024/03/20 04:48:13;;;;;;;47.78;24.67;;;10.70;99.90;;;;;;5047030;28;20044;-78
2024/03/20 04:50:38;;;;;;;44.05;25.83;;;10.70;99.90;;;;;;5046847;28;20570;-78
2024/03/20 04:53:04;;;;;;;46.88;24.25;;;10.70;99.90;;;;;;5048762;28;20032;-78
2024/03/20 04:55:30;;;;;;;46.40;23.85;;;10.70;99.90;;;;;;5050390;28;20626;-78
2024/03/20 04:57:55;;;;;;;46.15;23.05;;;10.70;99.90;;;;;;5050215;28;20068;-78
2024/03/20 05:00:21;;;;;;;49.13;25.20;;;10.70;99.90;;;;;;5047091;28;20057;-79
2024/03/20 05:02:47;;;;;;;53.58;26.27;;;10.70;99.90;;;;;;5046971;28;20528;-78
2024/03/20 05:05:12;;;;;;;50.20;24.48;;;10.70;99.90;;;;;;5047608;28;20044;-80
2024/03/20 05:07:38;;;;;;;56.00;26.45;;;10.70;99.90;;;;;;5047246;28;20044;-80
2024/03/20 05:10:04;;;;;;;49.00;24.80;;;10.60;99.90;;;;;;5047060;28;20557;-79
2024/03/20 05:12:31;;;;;;;53.40;27.55;;;10.60;99.90;;;;;;5048160;28;25268;-79
2024/03/20 05:14:56;;;;;;;52.53;26.83;;;10.60;99.90;;;;;;5045676;28;20563;-79
2024/03/20 05:17:22;;;;;;;48.38;25.48;;;10.70;99.90;;;;;;5048268;28;20072;-79
2024/03/20 05:19:48;;;;;;;51.83;25.92;;;10.70;99.90;;;;;;5046463;28;20033;-79
2024/03/20 05:22:13;;;;;;;50.35;24.55;;;10.70;99.90;;;;;;5047216;28;20068;-79
2024/03/20 05:24:40;;;;;;;51.10;26.38;;;10.80;99.90;;;;;;5046550;28;20051;-79
2024/03/20 05:27:07;;;;;;;48.58;25.05;;;10.80;99.90;;;;;;5047402;28;20121;-79
2024/03/20 05:29:33;;;;;;;51.10;25.10;;;10.80;99.90;;;;;;5048230;28;20028;-78
2024/03/20 05:31:59;;;;;;;54.80;27.15;;;10.70;99.90;;;;;;5046478;28;20107;-79
2024/03/20 05:34:24;;;;;;;51.38;26.25;;;10.70;99.90;;;;;;5045243;28;20039;-78
2024/03/20 05:36:50;;;;;;;47.03;23.90;;;10.70;99.90;;;;;;5046389;28;20131;-79
2024/03/20 05:39:15;;;;;;;48.70;26.33;;;10.70;99.90;;;;;;5046460;28;20032;-78
2024/03/20 05:41:41;;;;;;;48.58;24.77;;;10.70;99.90;;;;;;5047218;28;20127;-78
2024/03/20 05:44:07;;;;;;;47.80;25.33;;;10.60;99.90;;;;;;5046593;28;20050;-78
2024/03/20 05:46:33;;;;;;;53.58;27.65;;;10.60;99.90;;;;;;5045952;28;20033;-80
2024/03/20 05:48:59;;;;;;;50.65;25.52;;;10.60;99.90;;;;;;5047099;28;21334;-80
2024/03/20 05:51:26;;;;;;;52.63;27.13;;;10.60;99.90;;;;;;5048174;28;21370;-80
2024/03/20 05:53:51;;;;;;;43.63;23.33;;;10.60;99.90;;;;;;5041140;28;20029;-80
2024/03/20 05:56:17;;;;;;;43.45;21.20;;;10.70;99.90;;;;;;5039420;28;20095;-80
2024/03/20 05:58:43;;;;;;;43.28;21.23;;;10.60;99.90;;;;;;5029400;28;20131;-81
2024/03/20 06:01:09;;;;;;;37.67;21.10;;;10.70;99.90;;;;;;5045543;28;20039;-80
2024/03/20 06:03:35;;;;;;;38.00;19.13;;;10.70;99.90;;;;;;5049800;28;20025;-80
2024/03/20 06:06:01;;;;;;;37.92;20.73;;;10.80;99.90;;;;;;5051678;28;20048;-80
2024/03/20 06:08:27;;;;;;;40.92;20.67;;;10.70;99.90;;;;;;5049709;28;20036;-80
2024/03/20 06:10:54;;;;;;;37.55;21.05;;;10.80;99.90;;;;;;5049926;28;20032;-79
2024/03/20 06:13:20;;;;;;;35.13;19.48;;;10.80;99.90;;;;;;5051242;28;20064;-79
2024/03/20 06:15:47;;;;;;;38.40;21.00;;;10.70;99.90;;;;;;5050537;28;20177;-79
2024/03/20 06:18:13;;;;;;;39.00;19.60;;;10.70;99.90;;;;;;5058296;28;20037;-80
2024/03/20 06:20:38;;;;;;;35.58;19.80;;;10.80;99.90;;;;;;5050770;28;20043;-80
2024/03/20 06:23:04;;;;;;;38.83;19.75;;;10.70;99.90;;;;;;5049621;28;20435;-80
2024/03/20 06:25:29;;;;;;;29.25;17.60;;;10.80;99.90;;;;;;5048948;28;20093;-80
2024/03/20 06:27:55;;;;;;;37.05;17.50;;;10.90;99.90;;;;;;5050614;28;20036;-80
2024/03/20 06:30:23;;;;;;;27.15;14.95;;;10.90;99.90;;;;;;5050414;28;20074;-80
2024/03/20 06:32:49;;;;;;;28.33;15.15;;;10.80;99.90;;;;;;5051855;28;20040;-80
2024/03/20 06:35:16;;;;;;;26.77;14.75;;;10.80;99.90;;;;;;5049804;28;20805;-80
2024/03/20 06:37:41;;;;;;;24.52;13.70;;;10.70;99.90;;;;;;5051272;28;20035;-79
2024/03/20 06:40:08;;;;;;;25.23;12.45;;;10.70;99.90;;;;;;5050671;28;20028;-80
2024/03/20 06:42:34;;;;;;;25.15;12.93;;;10.70;99.90;;;;;;5050151;28;20197;-79
2024/03/20 06:45:00;;;;;;;27.27;12.32;;;10.70;99.90;;;;;;5048554;28;20048;-79
2024/03/20 06:47:26;;;;;;;25.40;11.95;;;10.70;99.90;;;;;;5049499;28;20402;-79
2024/03/20 06:49:52;;;;;;;26.67;13.10;;;10.70;99.90;;;;;;5048926;28;20035;-80
2024/03/20 06:52:21;;;;;;;18.77;10.02;;;10.80;99.90;;;;;;5050261;28;20478;-80
2024/03/20 06:54:47;;;;;;;22.10;10.02;;;10.70;99.90;;;;;;5050663;28;20055;-79
2024/03/20 06:57:13;;;;;;;23.05;11.15;;;10.80;99.90;;;;;;5049043;28;20051;-80
2024/03/20 06:59:43;;;;;;;15.85;9.13;;;10.80;99.90;;;;;;5051064;28;20549;-80
2024/03/20 07:02:08;;;;;;;20.85;10.90;;;10.80;99.90;;;;;;5050077;28;20586;-80
2024/03/20 07:04:34;;;;;;;19.27;10.25;;;10.80;99.90;;;;;;5049271;28;20041;-80
2024/03/20 07:07:03;;;;;;;14.57;7.80;;;10.80;99.90;;;;;;5047560;28;20043;-80
2024/03/20 07:09:30;;;;;;;21.13;10.07;;;10.70;99.90;;;;;;5050175;28;20044;-80
2024/03/20 07:11:56;;;;;;;16.85;8.50;;;10.70;99.90;;;;;;5048328;28;20051;-80
2024/03/20 07:14:21;;;;;;;16.23;9.00;;;10.80;99.90;;;;;;5050122;28;20036;-80
2024/03/20 07:16:47;;;;;;;14.75;7.85;;;10.80;99.90;;;;;;5049046;28;21300;-81
2024/03/20 07:19:13;;;;;;;13.63;7.90;;;10.70;99.90;;;;;;5049348;28;20655;-80
2024/03/20 07:21:39;;;;;;;14.93;8.70;;;10.70;99.90;;;;;;5051463;28;20044;-80
2024/03/20 07:24:06;;;;;;;12.45;7.53;;;10.70;99.90;;;;;;5049094;28;20127;-80
2024/03/20 07:26:38;;;;;;;15.65;7.88;;;10.80;99.90;;;;;;5048722;28;20057;-80
2024/03/20 07:29:09;;;;;;;17.77;7.72;;;10.80;99.90;;;;;;5047839;28;20095;-80
2024/03/20 07:31:35;;;;;;;13.75;6.72;;;10.70;99.90;;;;;;5050771;28;20093;-80
2024/03/20 07:34:03;;;;;;;15.23;7.07;;;10.80;99.90;;;;;;5050585;28;20050;-80
2024/03/20 07:36:29;;;;;;;13.40;6.75;;;10.80;99.90;;;;;;5046964;28;20032;-80
2024/03/20 07:38:55;;;;;;;13.55;6.07;;;10.60;99.90;;;;;;5051724;28;20108;-82
2024/03/20 07:41:22;;;;;;;10.25;6.03;;;10.80;99.90;;;;;;5058611;28;20123;-83
2024/03/20 07:43:48;;;;;;;11.30;6.30;;;10.80;99.90;;;;;;5051339;28;20075;-81
2024/03/20 07:46:13;;;;;;;11.77;6.43;;;10.80;99.90;;;;;;5047348;28;20040;-84
2024/03/20 07:48:46;;;;;;;11.27;5.95;;;10.80;99.90;;;;;;5049794;28;20028;-82
2024/03/20 07:51:14;;;;;;;12.07;6.45;;;10.90;99.90;;;;;;5049708;28;20517;-83
2024/03/20 07:53:41;;;;;;;13.75;6.07;;;10.90;99.90;;;;;;5050543;28;20047;-82
2024/03/20 07:56:07;;;;;;;13.25;6.38;;;10.90;99.90;;;;;;5048542;28;20026;-81
2024/03/20 07:58:32;;;;;;;11.70;6.20;;;10.90;99.90;;;;;;5049477;28;20017;-83
2024/03/20 08:00:58;;;;;;;14.07;5.50;;;10.80;99.90;;;;;;5050897;28;20483;-82
2024/03/20 08:03:24;;;;;;;9.70;5.55;;;10.80;99.90;;;;;;5048514;28;20025;-81
2024/03/20 08:05:50;;;;;;;10.32;5.85;;;11.00;99.90;;;;;;5047599;28;20121;-82
2024/03/20 08:08:15;;;;;;;8.05;4.13;;;11.10;99.90;;;;;;5050674;28;20058;-81
2024/03/20 08:10:41;;;;;;;8.85;4.03;;;11.00;99.90;;;;;;5048477;28;20036;-80
2024/03/20 08:13:09;;;;;;;12.52;3.83;;;10.90;99.90;;;;;;5049732;28;20040;-81
2024/03/20 08:15:36;;;;;;;7.50;4.07;;;11.00;99.90;;;;;;5047856;28;20025;-81
2024/03/20 08:18:02;;;;;;;6.32;2.90;;;11.10;99.90;;;;;;5048809;28;20129;-80
2024/03/20 08:20:28;;;;;;;10.02;4.28;;;11.20;99.90;;;;;;5049121;28;20684;-82
2024/03/20 08:22:53;;;;;;;8.23;3.55;;;11.20;99.90;;;;;;5050579;28;20036;-81
2024/03/20 08:25:19;;;;;;;6.85;3.47;;;11.30;99.90;;;;;;5047058;28;20044;-80
2024/03/20 08:27:45;;;;;;;7.80;3.58;;;11.30;99.90;;;;;;5048572;28;20032;-80
2024/03/20 08:30:13;;;;;;;6.55;3.05;;;11.40;99.90;;;;;;5050350;28;20032;-80
2024/03/20 08:32:39;;;;;;;6.38;3.35;;;11.40;99.90;;;;;;5047401;28;20063;-83
2024/03/20 08:35:07;;;;;;;10.70;3.47;;;11.40;99.90;;;;;;5046927;28;20036;-81
2024/03/20 08:37:34;;;;;;;6.45;2.90;;;11.40;99.90;;;;;;5047650;28;20407;-79
2024/03/20 08:40:01;;;;;;;7.47;3.38;;;11.50;99.90;;;;;;5046797;28;20036;-81
2024/03/20 08:42:27;;;;;;;5.07;2.42;;;11.40;99.90;;;;;;5046175;28;20044;-80
2024/03/20 08:44:53;;;;;;;7.63;3.05;;;11.40;99.90;;;;;;5041421;28;20087;-80
2024/03/20 08:47:19;;;;;;;5.97;3.03;;;11.40;99.90;;;;;;5046074;28;20631;-79
2024/03/20 08:49:44;;;;;;;4.82;2.50;;;11.40;99.90;;;;;;5047522;28;20032;-79
2024/03/20 08:52:12;;;;;;;11.27;2.97;;;11.40;99.90;;;;;;5051192;28;21409;-81
2024/03/20 08:54:43;;;;;;;8.38;2.95;;;11.50;99.90;;;;;;5049955;28;20035;-79
2024/03/20 08:57:12;;;;;;;5.80;2.75;;;11.50;99.90;;;;;;5049153;28;20032;-79
2024/03/20 08:59:38;;;;;;;9.95;2.95;;;11.60;99.90;;;;;;5051010;28;20033;-79
2024/03/20 09:02:04;;;;;;;6.80;2.88;;;11.60;99.90;;;;;;5049682;28;20111;-81
2024/03/20 09:04:29;;;;;;;6.97;2.50;;;11.70;99.90;;;;;;5049346;28;20066;-81
2024/03/20 09:06:58;;;;;;;5.50;2.75;;;11.80;99.90;;;;;;5049389;28;20052;-81
2024/03/20 09:09:24;;;;;;;7.72;3.20;;;11.90;99.90;;;;;;5049276;28;20056;-81
2024/03/20 09:11:50;;;;;;;4.55;2.30;;;11.90;99.90;;;;;;5048357;28;20623;-82
2024/03/20 09:14:15;;;;;;;5.30;2.58;;;12.10;99.90;;;;;;5050541;28;20068;-81
2024/03/20 09:16:41;;;;;;;6.28;2.35;;;12.20;99.90;;;;;;5047508;28;20040;-81
2024/03/20 09:19:08;;;;;;;5.43;2.55;;;12.30;99.90;;;;;;5048431;28;20425;-81
2024/03/20 09:21:34;;;;;;;5.68;2.47;;;12.50;99.90;;;;;;5050953;28;20119;-82
2024/03/20 09:24:00;;;;;;;6.63;3.25;;;12.50;99.90;;;;;;5050433;28;20082;-82
2024/03/20 09:26:26;;;;;;;8.57;3.10;;;12.70;99.90;;;;;;5049294;28;20115;-81
2024/03/20 09:28:52;;;;;;;6.00;2.78;;;13.00;99.90;;;;;;5049135;28;20040;-81
2024/03/20 09:31:17;;;;;;;8.73;3.45;;;13.10;99.90;;;;;;5047212;28;20071;-81
2024/03/20 09:33:43;;;;;;;6.07;2.53;;;13.70;99.90;;;;;;5049237;28;20379;-81
2024/03/20 09:36:08;;;;;;;6.00;2.33;;;13.90;99.90;;;;;;5048793;28;20850;-81
2024/03/20 09:38:34;;;;;;;9.57;2.35;;;13.70;99.90;;;;;;5047775;28;20029;-81
2024/03/20 09:40:59;;;;;;;5.32;2.58;;;13.40;99.90;;;;;;5048156;28;20033;-81
2024/03/20 09:43:26;;;;;;;5.82;2.63;;;13.40;99.60;;;;;;5050165;28;21673;-81
2024/03/20 09:45:54;;;;;;;11.75;3.85;;;13.00;99.40;;;;;;5047800;28;20547;-81
2024/03/20 09:48:21;;;;;;;7.93;3.70;;;12.90;99.90;;;;;;5049781;28;20044;-81
2024/03/20 09:50:48;;;;;;;11.25;3.83;;;12.80;99.90;;;;;;5050797;28;20032;-81
2024/03/20 09:53:14;;;;;;;6.07;2.45;;;12.80;99.90;;;;;;5049656;28;20033;-81
2024/03/20 09:55:43;;;;;;;5.07;2.83;;;12.90;99.90;;;;;;5049138;28;20032;-81
2024/03/20 09:58:13;;;;;;;6.57;2.83;;;12.80;99.90;;;;;;5049368;28;20036;-81
2024/03/20 10:00:39;;;;;;;8.88;3.25;;;12.90;99.50;;;;;;5048734;28;20034;-82
2024/03/20 10:03:07;;;;;;;5.82;3.25;;;13.10;99.60;;;;;;5049599;28;20043;-81
2024/03/20 10:05:33;;;;;;;6.68;2.97;;;13.30;99.90;;;;;;5050462;28;20106;-81
2024/03/20 10:07:59;;;;;;;8.90;3.83;;;13.20;99.50;;;;;;5048013;28;20036;-82
2024/03/20 10:10:24;;;;;;;8.50;3.30;;;13.30;99.50;;;;;;5048585;28;20130;-81
2024/03/20 10:12:50;;;;;;;7.50;3.15;;;13.50;99.90;;;;;;5050021;28;20143;-81
2024/03/20 10:15:22;;;;;;;8.00;3.90;;;13.60;99.20;;;;;;5048711;28;20090;-81
2024/03/20 10:17:48;;;;;;;9.35;4.25;;;13.70;99.90;;;;;;5048037;28;20032;-81
2024/03/20 10:20:16;;;;;;;9.55;3.90;;;13.80;99.90;;;;;;5047127;28;20557;-81
2024/03/20 10:22:42;;;;;;;7.90;4.05;;;13.90;99.90;;;;;;5048087;28;20054;-81
2024/03/20 10:25:13;;;;;;;15.95;6.93;;;13.80;99.30;;;;;;5048223;28;20037;-81
2024/03/20 10:27:40;;;;;;;18.75;9.00;;;13.90;99.90;;;;;;5047782;28;20032;-82
2024/03/20 10:30:20;;;;;;;15.95;7.65;;;14.10;99.90;;;;;;5048993;28;20032;-81
2024/03/20 10:32:51;;;;;;;14.75;8.65;;;14.10;99.90;;;;;;5049228;28;20032;-81
2024/03/20 10:35:20;;;;;;;15.43;8.75;;;14.10;99.90;;;;;;5048296;28;20128;-82
2024/03/20 10:37:47;;;;;;;23.58;10.52;;;14.10;99.90;;;;;;5048225;28;20029;-81
2024/03/20 10:40:18;;;;;;;16.83;9.15;;;14.30;99.90;;;;;;5050518;28;20036;-82
2024/03/20 10:42:46;;;;;;;18.45;9.75;;;14.40;99.90;;;;;;5048705;28;20085;-82
2024/03/20 10:45:12;;;;;;;20.48;9.90;;;14.40;99.90;;;;;;5047534;28;20057;-81
2024/03/20 10:47:42;;;;;;;20.08;10.52;;;14.50;99.90;;;;;;5050161;28;20082;-82
2024/03/20 10:50:18;;;;;;;18.45;10.32;;;14.60;99.90;;;;;;5052526;28;20036;-81
2024/03/20 10:52:46;;;;;;;19.80;10.20;;;14.70;99.90;;;;;;5053296;28;20059;-81
2024/03/20 10:55:15;;;;;;;20.08;10.45;;;14.80;99.90;;;;;;5050119;28;20036;-82
2024/03/20 10:57:41;;;;;;;23.60;11.43;;;14.50;99.90;;;;;;5052297;28;20090;-81
2024/03/20 11:00:19;;;;;;;23.38;10.57;;;14.50;99.90;;;;;;5051641;28;20060;-81
2024/03/20 11:02:46;;;;;;;20.27;11.73;;;15.00;99.90;;;;;;5050526;28;20029;-81
2024/03/20 11:05:38;;;;;;;21.70;11.43;;;15.30;99.90;;;;;;5052327;28;20055;-83
2024/03/20 11:08:07;;;;;;;22.20;12.52;;;15.00;99.90;;;;;;5053587;28;20037;-81
2024/03/20 11:10:34;;;;;;;28.65;14.15;;;14.90;99.90;;;;;;5055854;28;20127;-79
2024/03/20 11:13:00;;;;;;;22.20;10.80;;;15.30;99.90;;;;;;5057746;28;20035;-79
2024/03/20 11:15:32;;;;;;;21.98;10.45;;;15.50;99.90;;;;;;5056081;28;20033;-82
2024/03/20 11:17:59;;;;;;;28.45;12.73;;;15.80;99.90;;;;;;5057685;28;20025;-82
2024/03/20 11:20:34;;;;;;;21.27;10.90;;;16.00;99.90;;;;;;5057963;28;20020;-82
2024/03/20 11:23:04;;;;;;;21.52;11.95;;;15.80;99.90;;;;;;5056446;28;20123;-82
2024/03/20 11:25:39;;;;;;;23.67;12.65;;;15.60;99.90;;;;;;5056651;28;21330;-82
2024/03/20 11:28:05;;;;;;;20.00;10.65;;;15.60;99.90;;;;;;5057324;28;20040;-82
2024/03/20 11:30:31;;;;;;;17.35;9.80;;;16.00;99.90;;;;;;5057039;28;20071;-79
2024/03/20 11:32:57;;;;;;;20.20;12.02;;;16.20;99.90;;;;;;5057393;28;20119;-79
2024/03/20 11:35:26;;;;;;;20.15;10.30;;;16.40;99.90;;;;;;5057605;28;20119;-82
2024/03/20 11:37:52;;;;;;;17.45;8.90;;;16.40;98.60;;;;;;5056192;28;20545;-82
2024/03/20 11:40:17;;;;;;;18.58;9.85;;;16.40;98.20;;;;;;5057068;28;20032;-81
2024/03/20 11:42:43;;;;;;;19.70;12.50;;;16.60;98.10;;;;;;5057797;28;20039;-81
2024/03/20 11:45:12;;;;;;;19.63;10.85;;;16.70;98.40;;;;;;5055544;28;20484;-79
2024/03/20 11:47:38;;;;;;;18.38;10.90;;;16.50;98.60;;;;;;5057096;28;20031;-82
2024/03/20 11:50:06;;;;;;;23.02;13.18;;;16.50;98.80;;;;;;5057317;28;20021;-81
2024/03/20 11:52:32;;;;;;;26.08;13.05;;;16.60;99.00;;;;;;5056321;28;20866;-82
2024/03/20 11:54:58;;;;;;;17.90;10.30;;;16.50;98.80;;;;;;5056459;28;20029;-82
2024/03/20 11:57:24;;;;;;;19.73;9.77;;;16.80;99.30;;;;;;5057050;28;20029;-82
2024/03/20 11:59:51;;;;;;;16.50;9.95;;;16.80;99.50;;;;;;5056769;28;20020;-82
2024/03/20 12:02:19;;;;;;;17.80;10.63;;;16.80;99.20;;;;;;5056791;28;20032;-82
2024/03/20 12:04:45;;;;;;;17.58;10.07;;;16.90;99.30;;;;;;5056865;28;20569;-82
2024/03/20 12:07:36;;;;;;;21.15;11.57;;;16.90;98.80;;;;;;5055784;28;20023;-82
2024/03/20 12:10:02;;;;;;;21.08;11.13;;;16.90;98.80;;;;;;5049725;28;20066;-82
2024/03/20 12:12:28;;;;;;;13.98;8.35;;;17.10;98.50;;;;;;5051190;28;20128;-82
2024/03/20 12:14:59;;;;;;;22.92;10.35;;;17.10;98.30;;;;;;5049759;28;20028;-81
2024/03/20 12:17:26;;;;;;;22.55;13.18;;;17.00;98.60;;;;;;5050594;28;20101;-82
2024/03/20 12:19:52;;;;;;;17.58;11.02;;;17.00;98.60;;;;;;5051493;28;21701;-81
2024/03/20 12:22:19;;;;;;;18.50;9.98;;;17.20;97.70;;;;;;5050600;28;20025;-82
2024/03/20 12:24:46;;;;;;;14.65;8.88;;;17.40;98.40;;;;;;5050743;28;20542;-83
2024/03/20 12:27:14;;;;;;;14.65;8.35;;;17.70;98.10;;;;;;5051332;28;20036;-83